createdAt,value
2019-05-28T00:00:44.570Z,21.12
2019-05-28T00:01:44.557Z,21.15
2019-05-28T00:02:44.547Z,21.20
2019-05-28T00:03:44.538Z,21.21
2019-05-28T00:04:44.526Z,21.15
2019-05-28T00:05:44.563Z,21.19
2019-05-28T00:06:44.504Z,21.21
2019-05-28T00:07:44.491Z,21.34
2019-05-28T00:08:44.485Z,21.32
2019-05-28T00:09:44.474Z,21.30
2019-05-28T00:10:44.463Z,21.50
2019-05-28T00:11:44.601Z,21.53
2019-05-28T00:12:44.439Z,21.53
2019-05-28T00:13:44.430Z,21.48
2019-05-28T00:14:44.417Z,21.42
2019-05-28T00:15:44.408Z,21.39
2019-05-28T00:16:44.396Z,21.41
2019-05-28T00:17:44.435Z,21.54
2019-05-28T00:18:44.373Z,21.59
2019-05-28T00:19:44.363Z,21.57
2019-05-28T00:20:44.351Z,21.59
2019-05-28T00:21:44.340Z,21.66
2019-05-28T00:22:44.383Z,21.66
2019-05-28T00:23:44.321Z,21.66
2019-05-28T00:24:44.309Z,21.85
2019-05-28T00:25:44.300Z,21.89
2019-05-28T00:26:44.292Z,22.06
2019-05-28T00:27:44.427Z,22.27
2019-05-28T00:28:44.265Z,22.36
2019-05-28T00:29:44.254Z,22.65
2019-05-28T00:30:44.246Z,22.87
2019-05-28T00:31:44.236Z,22.93
2019-05-28T00:32:44.221Z,23.04
2019-05-28T00:33:44.263Z,23.24
2019-05-28T00:34:44.203Z,23.41
2019-05-28T00:35:44.189Z,23.57
2019-05-28T00:36:44.179Z,23.63
2019-05-28T00:37:44.170Z,23.84
2019-05-28T00:38:44.160Z,23.99
2019-05-28T00:39:44.246Z,24.17
2019-05-28T00:40:44.133Z,24.27
2019-05-28T00:41:44.123Z,24.50
2019-05-28T00:42:44.119Z,24.68
2019-05-28T00:43:44.104Z,24.82
2019-05-28T00:44:44.092Z,25.01
2019-05-28T00:45:44.331Z,25.21
2019-05-28T00:46:44.071Z,25.41
2019-05-28T00:47:44.066Z,25.57
2019-05-28T00:48:44.051Z,25.65
2019-05-28T00:49:44.043Z,25.82
2019-05-28T00:50:44.027Z,25.86
2019-05-28T00:51:44.117Z,26.01
2019-05-28T00:52:44.007Z,26.17
2019-05-28T00:53:43.999Z,26.28
2019-05-28T00:54:43.987Z,26.57
2019-05-28T00:55:43.977Z,26.63
2019-05-28T00:56:43.975Z,26.71
2019-05-28T00:57:44.004Z,26.79
2019-05-28T00:58:43.945Z,26.98
2019-05-28T00:59:43.941Z,27.09
2019-05-28T01:00:43.926Z,27.16
2019-05-28T01:01:43.914Z,27.33
2019-05-28T01:02:43.904Z,27.39
2019-05-28T01:04:43.942Z,27.68
2019-05-28T01:05:43.873Z,27.72
2019-05-28T01:06:43.977Z,27.94
2019-05-28T01:07:43.857Z,27.98
2019-05-28T01:08:43.839Z,27.97
2019-05-28T01:09:43.860Z,28.25
2019-05-28T01:10:43.869Z,28.36
2019-05-28T01:11:43.809Z,28.46
2019-05-28T01:12:43.800Z,28.59
2019-05-28T01:13:43.785Z,28.82
2019-05-28T01:14:43.774Z,29.03
2019-05-28T01:15:43.763Z,29.17
2019-05-28T01:16:43.802Z,29.17
2019-05-28T01:17:43.741Z,29.33
2019-05-28T01:18:43.730Z,29.42
2019-05-28T01:19:43.721Z,29.62
2019-05-28T01:20:43.708Z,29.75
2019-05-28T01:21:43.702Z,29.84
2019-05-28T01:22:43.863Z,29.94
2019-05-28T01:23:43.679Z,30.07
2019-05-28T01:24:43.671Z,29.96
2019-05-28T01:25:43.659Z,29.93
2019-05-28T01:26:43.651Z,30.07
2019-05-28T01:27:43.638Z,30.23
2019-05-28T01:28:43.679Z,30.53
2019-05-28T01:29:43.614Z,30.61
2019-05-28T01:30:54.665Z,30.95
2019-05-28T01:31:44.692Z,30.98
2019-05-28T01:32:43.588Z,30.95
2019-05-28T01:33:43.574Z,31.13
2019-05-28T01:34:43.613Z,31.38
2019-05-28T01:35:43.556Z,31.62
2019-05-28T01:36:43.547Z,31.84
2019-05-28T01:37:43.532Z,32.14
2019-05-28T01:38:43.521Z,32.46
2019-05-28T01:39:43.515Z,32.41
2019-05-28T01:40:43.653Z,32.59
2019-05-28T01:41:43.491Z,32.69
2019-05-28T01:42:43.483Z,32.61
2019-05-28T01:43:43.469Z,32.73
2019-05-28T01:44:43.461Z,32.73
2019-05-28T01:45:43.451Z,32.77
2019-05-28T01:46:43.536Z,32.85
2019-05-28T01:47:43.432Z,32.85
2019-05-28T01:48:43.421Z,32.95
2019-05-28T01:49:43.409Z,32.96
2019-05-28T01:50:43.399Z,33.04
2019-05-28T01:51:43.388Z,33.15
2019-05-28T01:52:43.428Z,33.40
2019-05-28T01:53:43.366Z,33.51
2019-05-28T01:54:43.355Z,33.57
2019-05-28T01:55:43.344Z,33.88
2019-05-28T01:56:43.335Z,33.93
2019-05-28T01:57:43.327Z,34.14
2019-05-28T01:58:43.467Z,34.24
2019-05-28T01:59:43.307Z,34.48
2019-05-28T02:00:43.299Z,34.63
2019-05-28T02:01:43.285Z,34.72
2019-05-28T02:02:43.321Z,34.80
2019-05-28T02:03:43.267Z,35.05
2019-05-28T02:04:43.314Z,35.22
2019-05-28T02:05:43.247Z,35.50
2019-05-28T02:06:43.239Z,35.66
2019-05-28T02:07:43.228Z,35.70
2019-05-28T02:08:43.217Z,36.00
2019-05-28T02:09:43.206Z,36.19
2019-05-28T02:10:43.248Z,36.37
2019-05-28T02:11:43.195Z,36.55
2019-05-28T02:12:43.177Z,36.75
2019-05-28T02:13:43.167Z,36.82
2019-05-28T02:14:43.158Z,36.91
2019-05-28T02:15:43.145Z,37.09
2019-05-28T02:16:43.284Z,37.14
2019-05-28T02:17:43.136Z,37.12
2019-05-28T02:18:43.117Z,37.09
2019-05-28T02:19:43.105Z,37.19
2019-05-28T02:20:43.095Z,37.17
2019-05-28T02:21:43.083Z,37.20
2019-05-28T02:22:43.126Z,37.24
2019-05-28T02:23:43.064Z,37.48
2019-05-28T02:24:43.059Z,37.47
2019-05-28T02:25:43.043Z,37.51
2019-05-28T02:26:43.033Z,37.53
2019-05-28T02:27:43.028Z,37.31
2019-05-28T02:28:43.111Z,37.28
2019-05-28T02:29:43.015Z,37.31
2019-05-28T02:30:43.001Z,37.28
2019-05-28T02:31:42.982Z,37.38
2019-05-28T02:32:42.973Z,37.36
2019-05-28T02:33:42.963Z,37.39
2019-05-28T02:34:43.105Z,37.47
2019-05-28T02:35:42.944Z,37.67
2019-05-28T02:36:42.936Z,37.80
2019-05-28T02:37:42.927Z,38.04
2019-05-28T02:38:42.920Z,38.14
2019-05-28T02:39:42.905Z,38.21
2019-05-28T02:40:42.999Z,38.41
2019-05-28T02:41:42.888Z,38.49
2019-05-28T02:42:42.874Z,38.53
2019-05-28T02:43:42.867Z,38.60
2019-05-28T02:44:42.855Z,38.51
2019-05-28T02:45:42.848Z,38.42
2019-05-28T02:46:42.888Z,38.42
2019-05-28T02:47:42.823Z,38.45
2019-05-28T02:48:42.818Z,38.33
2019-05-28T02:49:42.807Z,38.21
2019-05-28T02:50:42.798Z,38.17
2019-05-28T02:51:42.787Z,38.34
2019-05-28T02:52:42.929Z,38.22
2019-05-28T02:53:42.767Z,38.27
2019-05-28T02:54:42.758Z,38.21
2019-05-28T02:55:42.749Z,38.26
2019-05-28T02:56:42.738Z,38.34
2019-05-28T02:57:42.730Z,38.41
2019-05-28T02:58:42.771Z,38.36
2019-05-28T02:59:42.712Z,38.42
2019-05-28T03:00:42.707Z,38.48
2019-05-28T03:01:44.631Z,38.46
2019-05-28T03:02:42.684Z,38.55
2019-05-28T03:03:42.670Z,38.60
2019-05-28T03:04:42.761Z,38.73
2019-05-28T03:05:42.657Z,38.92
2019-05-28T03:06:42.643Z,39.02
2019-05-28T03:07:42.637Z,39.16
2019-05-28T03:08:42.623Z,39.16
2019-05-28T03:09:42.614Z,39.13
2019-05-28T03:11:03.083Z,39.27
2019-05-28T03:11:43.696Z,39.17
2019-05-28T03:12:42.589Z,39.29
2019-05-28T03:13:42.575Z,39.08
2019-05-28T03:14:42.564Z,39.05
2019-05-28T03:15:42.560Z,39.07
2019-05-28T03:16:42.596Z,39.05
2019-05-28T03:17:42.538Z,38.94
2019-05-28T03:18:42.525Z,38.92
2019-05-28T03:19:42.514Z,39.07
2019-05-28T03:20:42.506Z,39.17
2019-05-28T03:21:42.497Z,39.31
2019-05-28T03:22:42.589Z,39.35
2019-05-28T03:23:42.479Z,39.45
2019-05-28T03:24:42.470Z,39.46
2019-05-28T03:25:42.457Z,39.46
2019-05-28T03:26:42.450Z,39.51
2019-05-28T03:27:42.438Z,39.46
2019-05-28T03:28:42.578Z,39.45
2019-05-28T03:29:42.420Z,39.54
2019-05-28T03:30:42.413Z,39.53
2019-05-28T03:31:42.412Z,39.27
2019-05-28T03:32:42.403Z,39.09
2019-05-28T03:33:42.389Z,38.95
2019-05-28T03:34:42.500Z,38.94
2019-05-28T03:35:42.365Z,39.16
2019-05-28T03:36:42.358Z,39.34
2019-05-28T03:37:42.344Z,39.43
2019-05-28T03:38:42.334Z,39.46
2019-05-28T03:39:42.325Z,39.48
2019-05-28T03:40:42.414Z,39.38
2019-05-28T03:41:42.305Z,39.21
2019-05-28T03:42:42.294Z,39.20
2019-05-28T03:43:42.289Z,39.26
2019-05-28T03:44:42.275Z,39.21
2019-05-28T03:45:42.266Z,39.17
2019-05-28T03:46:42.406Z,39.27
2019-05-28T03:47:42.249Z,39.23
2019-05-28T03:48:42.236Z,39.42
2019-05-28T03:49:42.229Z,39.43
2019-05-28T03:50:42.225Z,39.58
2019-05-28T03:51:42.209Z,39.71
2019-05-28T03:52:42.249Z,39.98
2019-05-28T03:53:42.187Z,39.96
2019-05-28T03:54:42.178Z,40.33
2019-05-28T03:55:42.173Z,40.45
2019-05-28T03:56:42.159Z,40.55
2019-05-28T03:57:42.151Z,40.55
2019-05-28T03:58:42.242Z,40.64
2019-05-28T03:59:42.131Z,40.68
2019-05-28T04:00:42.130Z,40.63
2019-05-28T04:01:42.121Z,40.65
2019-05-28T04:02:42.102Z,40.67
2019-05-28T04:03:42.091Z,40.79
2019-05-28T04:04:42.234Z,40.86
2019-05-28T04:05:42.075Z,40.82
2019-05-28T04:06:42.063Z,40.92
2019-05-28T04:07:42.055Z,40.83
2019-05-28T04:08:42.046Z,40.86
2019-05-28T04:09:42.134Z,40.71
2019-05-28T04:10:42.023Z,40.60
2019-05-28T04:11:45.109Z,40.48
2019-05-28T04:12:42.007Z,40.34
2019-05-28T04:13:42.000Z,40.27
2019-05-28T04:14:41.989Z,40.18
2019-05-28T04:15:42.026Z,40.24
2019-05-28T04:16:41.968Z,40.37
2019-05-28T04:17:41.955Z,40.53
2019-05-28T04:18:41.946Z,40.67
2019-05-28T04:19:41.937Z,40.71
2019-05-28T04:20:42.930Z,40.42
2019-05-28T04:21:41.919Z,40.34
2019-05-28T04:22:41.908Z,40.18
2019-05-28T04:23:42.104Z,40.10
2019-05-28T04:24:41.891Z,39.98
2019-05-28T04:25:41.881Z,40.05
2019-05-28T04:26:41.921Z,40.04
2019-05-28T04:27:41.897Z,40.04
2019-05-28T04:28:41.851Z,40.26
2019-05-28T04:29:41.850Z,40.32
2019-05-28T04:30:41.831Z,40.45
2019-05-28T04:31:41.871Z,40.44
2019-05-28T04:32:41.818Z,40.26
2019-05-28T04:33:41.799Z,40.37
2019-05-28T04:34:41.791Z,40.39
2019-05-28T04:35:41.780Z,40.55
2019-05-28T04:36:41.770Z,40.75
2019-05-28T04:37:41.861Z,40.82
2019-05-28T04:38:41.751Z,40.85
2019-05-28T04:39:41.743Z,40.93
2019-05-28T04:40:41.732Z,40.95
2019-05-28T04:41:41.721Z,40.99
2019-05-28T04:42:41.959Z,41.04
2019-05-28T04:43:41.701Z,40.97
2019-05-28T04:44:41.690Z,40.87
2019-05-28T04:45:41.680Z,40.83
2019-05-28T04:46:41.668Z,40.75
2019-05-28T04:47:41.662Z,40.80
2019-05-28T04:48:41.701Z,40.80
2019-05-28T04:49:41.643Z,40.78
2019-05-28T04:50:41.630Z,40.68
2019-05-28T04:51:41.620Z,40.68
2019-05-28T04:52:41.664Z,40.64
2019-05-28T04:53:41.603Z,40.65
2019-05-28T04:54:41.753Z,40.83
2019-05-28T04:55:41.581Z,40.83
2019-05-28T04:56:41.585Z,40.85
2019-05-28T04:57:41.560Z,40.74
2019-05-28T04:58:41.551Z,40.95
2019-05-28T04:59:41.614Z,40.99
2019-05-28T05:00:41.686Z,40.97
2019-05-28T05:01:41.521Z,40.93
2019-05-28T05:02:57.715Z,40.83
2019-05-28T05:04:06.311Z,40.89
2019-05-28T05:05:06.299Z,40.82
2019-05-28T05:06:06.341Z,40.74
2019-05-28T05:07:06.281Z,40.75
2019-05-28T05:08:06.284Z,40.78
2019-05-28T05:09:06.259Z,40.78
2019-05-28T05:10:06.248Z,40.73
2019-05-28T05:11:06.239Z,40.75
2019-05-28T05:12:06.281Z,40.75
2019-05-28T05:13:06.220Z,40.61
2019-05-28T05:14:06.210Z,40.49
2019-05-28T05:15:06.234Z,40.41
2019-05-28T05:16:06.188Z,40.33
2019-05-28T05:17:06.179Z,40.23
2019-05-28T05:18:06.319Z,40.11
2019-05-28T05:19:06.160Z,39.95
2019-05-28T05:20:06.153Z,39.90
2019-05-28T05:21:06.140Z,39.83
2019-05-28T05:22:06.145Z,39.96
2019-05-28T05:23:06.117Z,40.10
2019-05-28T05:24:06.157Z,39.92
2019-05-28T05:25:06.095Z,39.76
2019-05-28T05:26:06.088Z,39.57
2019-05-28T05:27:06.078Z,39.63
2019-05-28T05:28:06.067Z,39.57
2019-05-28T05:29:06.057Z,39.70
2019-05-28T05:30:06.100Z,39.67
2019-05-28T05:31:06.061Z,39.60
2019-05-28T05:32:06.026Z,39.71
2019-05-28T05:33:19.403Z,39.80
2019-05-28T05:34:30.817Z,39.53
2019-05-28T05:35:31.807Z,39.50
2019-05-28T05:36:30.799Z,39.27
2019-05-28T05:37:30.787Z,39.09
2019-05-28T05:38:30.775Z,38.89
2019-05-28T05:39:30.768Z,38.67
2019-05-28T05:40:30.759Z,38.58
2019-05-28T05:42:30.839Z,38.04
2019-05-28T05:43:30.727Z,37.79
2019-05-28T05:44:30.720Z,37.65
2019-05-28T05:45:30.709Z,37.28
2019-05-28T05:46:30.722Z,36.85
2019-05-28T05:47:30.703Z,36.51
2019-05-28T05:48:30.796Z,36.19
2019-05-28T05:49:30.669Z,36.03
2019-05-28T05:50:30.659Z,35.81
2019-05-28T05:51:30.650Z,35.70
2019-05-28T05:52:30.640Z,35.47
2019-05-28T05:53:30.633Z,35.20
2019-05-28T05:54:30.672Z,35.07
2019-05-28T05:55:30.614Z,34.79
2019-05-28T05:56:30.602Z,34.63
2019-05-28T05:57:30.591Z,34.61
2019-05-28T05:58:30.584Z,34.32
2019-05-28T05:59:30.572Z,34.11
2019-05-28T06:00:30.611Z,33.93
2019-05-28T06:01:30.550Z,33.82
2019-05-28T06:02:30.541Z,33.60
2019-05-28T06:03:40.414Z,33.66
2019-05-28T06:04:55.331Z,33.51
2019-05-28T06:05:55.375Z,33.51
2019-05-28T06:06:55.315Z,33.41
2019-05-28T06:07:55.320Z,33.47
2019-05-28T06:08:55.295Z,33.25
2019-05-28T06:09:55.281Z,33.19
2019-05-28T06:10:55.270Z,33.04
2019-05-28T06:11:55.318Z,32.89
2019-05-28T06:12:55.250Z,32.79
2019-05-28T06:13:55.240Z,32.59
2019-05-28T06:14:55.294Z,32.50
2019-05-28T06:15:55.219Z,32.38
2019-05-28T06:16:55.210Z,32.23
2019-05-28T06:17:55.249Z,32.17
2019-05-28T06:18:55.435Z,32.09
2019-05-28T06:19:55.180Z,31.90
2019-05-28T06:21:09.322Z,31.77
2019-05-28T06:22:20.027Z,31.46
2019-05-28T06:23:20.059Z,31.40
2019-05-28T06:24:19.954Z,31.35
2019-05-28T06:25:19.974Z,31.17
2019-05-28T06:26:19.940Z,31.13
2019-05-28T06:27:19.921Z,31.08
2019-05-28T06:28:19.917Z,30.92
2019-05-28T06:29:19.949Z,30.75
2019-05-28T06:30:19.888Z,30.56
2019-05-28T06:31:19.876Z,30.55
2019-05-28T06:32:19.869Z,30.40
2019-05-28T06:33:19.857Z,30.34
2019-05-28T06:34:19.848Z,30.14
2019-05-28T06:35:19.888Z,30.05
2019-05-28T06:36:19.826Z,29.96
2019-05-28T06:37:19.816Z,29.93
2019-05-28T06:38:19.898Z,29.94
2019-05-28T06:39:19.793Z,29.89
2019-05-28T06:40:19.935Z,29.93
2019-05-28T06:41:19.773Z,29.96
2019-05-28T06:42:19.762Z,29.89
2019-05-28T06:43:19.759Z,29.93
2019-05-28T06:44:19.742Z,29.89
2019-05-28T06:45:19.733Z,29.94
2019-05-28T06:46:19.868Z,30.02
2019-05-28T06:47:19.714Z,30.07
2019-05-28T06:48:19.709Z,29.99
2019-05-28T06:49:19.690Z,30.19
2019-05-28T06:50:19.681Z,30.18
2019-05-28T06:51:19.673Z,30.27
2019-05-28T06:52:19.772Z,30.24
2019-05-28T06:53:19.651Z,30.30
2019-05-28T06:54:19.644Z,30.33
2019-05-28T06:55:19.634Z,30.31
2019-05-28T06:56:19.624Z,30.34
2019-05-28T06:57:22.844Z,30.36
2019-05-28T06:58:35.625Z,30.42
2019-05-28T06:59:44.403Z,30.44
2019-05-28T07:00:44.392Z,30.49
2019-05-28T07:01:44.380Z,30.46
2019-05-28T07:02:44.399Z,30.42
2019-05-28T07:03:44.407Z,30.45
2019-05-28T07:04:44.349Z,30.48
2019-05-28T07:05:44.341Z,30.44
2019-05-28T07:06:44.328Z,30.46
2019-05-28T07:07:44.323Z,30.51
2019-05-28T07:08:44.311Z,30.53
2019-05-28T07:09:44.399Z,30.42
2019-05-28T07:10:57.224Z,30.42
2019-05-28T07:12:09.091Z,30.46
2019-05-28T07:13:09.081Z,30.56
2019-05-28T07:14:09.069Z,30.55
2019-05-28T07:15:09.207Z,30.44
2019-05-28T07:16:09.051Z,30.40
2019-05-28T07:17:09.038Z,30.56
2019-05-28T07:18:09.029Z,30.52
2019-05-28T07:19:23.414Z,30.58
2019-05-28T07:20:33.934Z,30.51
2019-05-28T07:21:33.910Z,30.64
2019-05-28T07:22:33.902Z,30.66
2019-05-28T07:23:33.886Z,30.73
2019-05-28T07:24:33.877Z,30.63
2019-05-28T07:26:33.907Z,30.67
2019-05-28T07:27:33.847Z,30.67
2019-05-28T07:28:33.837Z,30.70
2019-05-28T07:29:33.826Z,30.56
2019-05-28T07:30:33.816Z,30.68
2019-05-28T07:31:34.204Z,30.71
2019-05-28T07:32:33.803Z,30.64
2019-05-28T07:33:35.808Z,30.68
2019-05-28T07:34:33.772Z,30.71
2019-05-28T07:35:45.176Z,30.68
2019-05-28T07:36:58.663Z,30.58
2019-05-28T07:37:58.655Z,30.56
2019-05-28T07:38:58.644Z,30.64
2019-05-28T07:39:58.636Z,30.64
2019-05-28T07:40:58.622Z,30.67
2019-05-28T07:41:58.709Z,30.63
2019-05-28T07:42:58.842Z,30.68
2019-05-28T07:43:58.590Z,30.61
2019-05-28T07:44:58.579Z,30.46
2019-05-28T07:45:58.571Z,30.34
2019-05-28T07:46:58.560Z,30.15
2019-05-28T07:47:58.700Z,30.14
2019-05-28T07:48:58.540Z,30.14
2019-05-28T07:49:58.528Z,30.21
2019-05-28T07:50:58.527Z,30.19
2019-05-28T07:51:58.512Z,30.23
2019-05-28T07:52:58.498Z,30.26
2019-05-28T07:53:58.539Z,30.34
2019-05-28T07:54:58.478Z,30.38
2019-05-28T07:55:58.527Z,30.44
2019-05-28T07:56:58.456Z,30.45
2019-05-28T07:57:58.446Z,30.33
2019-05-28T07:58:58.442Z,30.56
2019-05-28T07:59:58.476Z,30.53
2019-05-28T08:00:58.411Z,30.63
2019-05-28T08:01:58.405Z,30.48
2019-05-28T08:02:58.393Z,30.51
2019-05-28T08:03:58.449Z,30.61
2019-05-28T08:04:58.375Z,30.49
2019-05-28T08:05:58.514Z,30.58
2019-05-28T08:06:58.352Z,30.53
2019-05-28T08:07:58.342Z,30.51
2019-05-28T08:08:58.332Z,30.67
2019-05-28T08:09:58.338Z,30.58
2019-05-28T08:10:58.311Z,30.52
2019-05-28T08:11:58.356Z,30.56
2019-05-28T08:12:58.289Z,30.70
2019-05-28T08:13:58.279Z,30.70
2019-05-28T08:14:58.269Z,30.70
2019-05-28T08:16:16.978Z,30.64
2019-05-28T08:16:59.445Z,30.70
2019-05-28T08:17:58.238Z,30.77
2019-05-28T08:18:58.229Z,30.73
2019-05-28T08:19:58.219Z,30.71
2019-05-28T08:20:58.265Z,30.64
2019-05-28T08:21:58.198Z,30.67
2019-05-28T08:22:58.339Z,30.64
2019-05-28T08:23:58.177Z,30.68
2019-05-28T08:24:58.167Z,30.70
2019-05-28T08:26:01.658Z,30.71
2019-05-28T08:26:58.144Z,30.73
2019-05-28T08:28:16.423Z,30.66
2019-05-28T08:29:00.222Z,30.68
2019-05-28T08:29:58.117Z,30.68
2019-05-28T08:31:14.036Z,30.68
2019-05-28T08:31:59.189Z,30.70
2019-05-28T08:32:58.087Z,30.79
2019-05-28T08:33:58.076Z,30.79
2019-05-28T08:35:05.483Z,30.86
2019-05-28T08:36:22.866Z,30.97
2019-05-28T08:37:22.854Z,30.98
2019-05-28T08:38:22.845Z,30.93
2019-05-28T08:39:22.834Z,30.88
2019-05-28T08:40:22.974Z,30.93
2019-05-28T08:41:22.814Z,30.95
2019-05-28T08:42:22.804Z,30.93
2019-05-28T08:43:22.793Z,30.98
2019-05-28T08:44:22.782Z,30.97
2019-05-28T08:45:22.771Z,31.03
2019-05-28T08:46:22.862Z,31.05
2019-05-28T08:47:22.753Z,31.04
2019-05-28T08:48:22.743Z,31.05
2019-05-28T08:49:24.114Z,31.03
2019-05-28T08:50:33.662Z,31.04
2019-05-28T08:51:47.622Z,31.00
2019-05-28T08:52:47.817Z,30.97
2019-05-28T08:53:47.601Z,31.03
2019-05-28T08:54:51.031Z,30.98
2019-05-28T08:55:47.581Z,31.00
2019-05-28T08:56:47.720Z,30.83
2019-05-28T08:57:47.558Z,30.98
2019-05-28T08:58:47.551Z,30.95
2019-05-28T08:59:47.541Z,30.86
2019-05-28T09:00:47.532Z,30.93
2019-05-28T09:01:47.575Z,30.95
2019-05-28T09:02:47.568Z,31.00
2019-05-28T09:03:47.498Z,30.97
2019-05-28T09:04:47.517Z,30.93
2019-05-28T09:05:47.478Z,30.93
2019-05-28T09:06:47.467Z,30.92
2019-05-28T09:07:47.455Z,30.98
2019-05-28T09:08:47.497Z,30.98
2019-05-28T09:09:47.437Z,31.03
2019-05-28T09:10:47.456Z,31.01
2019-05-28T09:11:47.414Z,31.07
2019-05-28T09:12:47.405Z,30.95
2019-05-28T09:13:47.393Z,30.89
2019-05-28T09:14:55.660Z,30.82
2019-05-28T09:15:48.470Z,30.75
2019-05-28T09:16:47.386Z,30.68
2019-05-28T09:17:47.351Z,30.68
2019-05-28T09:18:47.342Z,30.67
2019-05-28T09:19:47.332Z,30.77
2019-05-28T09:20:47.379Z,30.75
2019-05-28T09:21:47.311Z,30.74
2019-05-28T09:22:47.306Z,30.90
2019-05-28T09:23:47.295Z,30.86
2019-05-28T09:24:47.284Z,30.86
2019-05-28T09:25:47.273Z,30.82
2019-05-28T09:26:47.312Z,30.97
2019-05-28T09:27:47.254Z,31.00
2019-05-28T09:28:47.243Z,30.92
2019-05-28T09:29:47.228Z,30.97
2019-05-28T09:30:47.222Z,31.03
2019-05-28T09:31:47.211Z,31.03
2019-05-28T09:32:47.433Z,31.08
2019-05-28T09:33:47.192Z,31.10
2019-05-28T09:34:47.182Z,31.08
2019-05-28T09:36:06.252Z,31.07
2019-05-28T09:36:48.255Z,31.07
2019-05-28T09:37:47.148Z,31.15
2019-05-28T09:38:47.189Z,31.08
2019-05-28T09:39:47.128Z,31.04
2019-05-28T09:40:50.696Z,31.10
2019-05-28T09:41:47.107Z,31.00
2019-05-28T09:42:47.095Z,30.93
2019-05-28T09:43:47.085Z,30.83
2019-05-28T09:44:47.126Z,30.90
2019-05-28T09:45:47.182Z,30.83
2019-05-28T09:46:47.057Z,30.89
2019-05-28T09:47:47.044Z,30.93
2019-05-28T09:48:47.033Z,30.90
2019-05-28T09:49:47.034Z,30.82
2019-05-28T09:50:47.215Z,30.88
2019-05-28T09:51:47.013Z,30.98
2019-05-28T09:52:54.349Z,30.97
2019-05-28T09:54:11.792Z,30.88
2019-05-28T09:55:11.782Z,30.86
2019-05-28T09:56:11.890Z,30.80
2019-05-28T09:57:11.766Z,30.80
2019-05-28T09:58:11.752Z,30.90
2019-05-28T09:59:11.740Z,30.82
2019-05-28T10:00:14.927Z,30.85
2019-05-28T10:01:11.720Z,30.89
2019-05-28T10:02:11.762Z,30.95
2019-05-28T10:03:11.700Z,30.95
2019-05-28T10:04:11.777Z,31.03
2019-05-28T10:05:11.681Z,31.05
2019-05-28T10:06:16.848Z,31.08
2019-05-28T10:07:12.972Z,31.10
2019-05-28T10:08:11.647Z,31.17
2019-05-28T10:09:11.639Z,31.10
2019-05-28T10:10:11.663Z,31.11
2019-05-28T10:11:11.618Z,31.20
2019-05-28T10:12:11.611Z,31.13
2019-05-28T10:13:11.650Z,31.00
2019-05-28T10:14:11.590Z,30.97
2019-05-28T10:15:11.577Z,30.97
2019-05-28T10:16:11.605Z,30.90
2019-05-28T10:17:11.557Z,30.92
2019-05-28T10:18:11.549Z,30.89
2019-05-28T10:19:11.586Z,30.89
2019-05-28T10:20:11.527Z,30.97
2019-05-28T10:21:18.235Z,30.93
2019-05-28T10:22:12.601Z,31.00
2019-05-28T10:23:11.512Z,30.92
2019-05-28T10:24:11.491Z,30.92
2019-05-28T10:25:11.626Z,30.92
2019-05-28T10:26:11.465Z,30.89
2019-05-28T10:27:11.461Z,31.00
2019-05-28T10:28:11.442Z,30.95
2019-05-28T10:29:11.433Z,31.04
2019-05-28T10:30:11.421Z,31.01
2019-05-28T10:31:11.461Z,31.07
2019-05-28T10:32:11.402Z,31.07
2019-05-28T10:33:11.390Z,31.03
2019-05-28T10:34:11.381Z,31.04
2019-05-28T10:35:11.373Z,31.05
2019-05-28T10:36:11.360Z,30.97
2019-05-28T10:37:11.453Z,30.93
2019-05-28T10:38:15.079Z,30.86
2019-05-28T10:39:11.400Z,30.73
2019-05-28T10:40:11.321Z,30.67
2019-05-28T10:41:11.313Z,30.73
2019-05-28T10:42:11.301Z,30.71
2019-05-28T10:43:11.441Z,30.77
2019-05-28T10:44:11.280Z,30.74
2019-05-28T10:45:11.277Z,30.82
2019-05-28T10:46:11.348Z,30.80
2019-05-28T10:47:11.248Z,30.80
2019-05-28T10:48:11.243Z,30.82
2019-05-28T10:49:11.336Z,30.88
2019-05-28T10:50:11.223Z,30.90
2019-05-28T10:51:11.343Z,30.88
2019-05-28T10:52:11.196Z,30.86
2019-05-28T10:53:11.186Z,30.88
2019-05-28T10:54:11.182Z,30.97
2019-05-28T10:55:11.216Z,30.92
2019-05-28T10:56:11.245Z,30.93
2019-05-28T10:57:11.150Z,31.01
2019-05-28T10:58:11.136Z,30.98
2019-05-28T10:59:11.124Z,30.97
2019-05-28T11:00:11.274Z,31.01
2019-05-28T11:01:11.103Z,31.01
2019-05-28T11:02:11.092Z,30.98
2019-05-28T11:03:11.082Z,31.11
2019-05-28T11:04:11.077Z,31.05
2019-05-28T11:05:11.064Z,31.13
2019-05-28T11:06:11.150Z,31.17
2019-05-28T11:07:11.046Z,31.18
2019-05-28T11:08:11.032Z,31.17
2019-05-28T11:09:11.021Z,31.20
2019-05-28T11:10:23.233Z,31.20
2019-05-28T11:11:35.891Z,31.15
2019-05-28T11:12:35.862Z,31.26
2019-05-28T11:13:49.964Z,31.23
2019-05-28T11:15:00.644Z,31.27
2019-05-28T11:16:00.634Z,31.27
2019-05-28T11:17:01.050Z,31.24
2019-05-28T11:18:00.619Z,31.23
2019-05-28T11:19:00.606Z,31.21
2019-05-28T11:20:00.594Z,31.18
2019-05-28T11:21:00.587Z,31.26
2019-05-28T11:22:00.571Z,31.27
2019-05-28T11:23:00.619Z,31.31
2019-05-28T11:24:00.555Z,31.26
2019-05-28T11:25:00.540Z,31.23
2019-05-28T11:26:00.533Z,31.33
2019-05-28T11:27:00.523Z,31.33
2019-05-28T11:28:00.512Z,31.39
2019-05-28T11:29:00.559Z,31.23
2019-05-28T11:30:00.494Z,31.26
2019-05-28T11:31:00.484Z,31.33
2019-05-28T11:32:00.471Z,31.18
2019-05-28T11:33:00.462Z,31.21
2019-05-28T11:34:00.461Z,31.18
2019-05-28T11:35:00.692Z,31.17
2019-05-28T11:36:00.429Z,31.24
2019-05-28T11:37:09.407Z,31.26
2019-05-28T11:38:25.222Z,31.26
2019-05-28T11:39:25.218Z,31.27
2019-05-28T11:40:25.252Z,31.26
2019-05-28T11:41:40.883Z,31.28
2019-05-28T11:42:26.279Z,31.28
2019-05-28T11:43:25.178Z,31.20
2019-05-28T11:44:25.185Z,31.26
2019-05-28T11:45:25.151Z,31.11
2019-05-28T11:46:25.243Z,31.10
2019-05-28T11:47:25.196Z,31.13
2019-05-28T11:48:25.125Z,31.17
2019-05-28T11:49:25.120Z,31.05
2019-05-28T11:50:25.098Z,31.05
2019-05-28T11:51:25.437Z,31.11
2019-05-28T11:52:25.086Z,31.04
2019-05-28T11:53:25.070Z,31.04
2019-05-28T11:54:25.062Z,31.04
2019-05-28T11:55:25.056Z,31.01
2019-05-28T11:56:25.388Z,30.92
2019-05-28T11:57:25.029Z,30.95
2019-05-28T11:58:25.022Z,31.00
2019-05-28T11:59:25.011Z,30.95
2019-05-28T12:00:25.001Z,30.98
2019-05-28T12:01:34.574Z,31.01
2019-05-28T12:02:49.840Z,30.92
2019-05-28T12:03:49.828Z,30.97
2019-05-28T12:04:49.819Z,31.00
2019-05-28T12:05:49.809Z,30.98
2019-05-28T12:06:49.799Z,30.98
2019-05-28T12:07:51.884Z,30.97
2019-05-28T12:08:49.777Z,30.95
2019-05-28T12:09:49.769Z,30.97
2019-05-28T12:10:49.760Z,30.92
2019-05-28T12:11:49.752Z,30.97
2019-05-28T12:12:49.738Z,30.85
2019-05-28T12:13:49.877Z,30.90
2019-05-28T12:14:49.715Z,30.77
2019-05-28T12:15:49.714Z,30.83
2019-05-28T12:16:49.702Z,30.77
2019-05-28T12:17:49.686Z,30.77
2019-05-28T12:18:49.673Z,30.82
2019-05-28T12:19:49.934Z,30.89
2019-05-28T12:20:49.660Z,30.79
2019-05-28T12:21:49.650Z,30.75
2019-05-28T12:22:49.635Z,30.79
2019-05-28T12:23:49.623Z,30.70
2019-05-28T12:24:49.616Z,30.79
2019-05-28T12:25:49.661Z,30.75
2019-05-28T12:26:49.764Z,30.71
2019-05-28T12:27:49.582Z,30.64
2019-05-28T12:28:49.571Z,30.68
2019-05-28T12:29:52.277Z,30.66
2019-05-28T12:30:49.557Z,30.71
2019-05-28T12:31:49.792Z,30.58
2019-05-28T12:32:49.532Z,30.53
2019-05-28T12:33:49.520Z,30.61
2019-05-28T12:34:49.510Z,30.51
2019-05-28T12:35:49.526Z,30.44
2019-05-28T12:36:49.489Z,30.58
2019-05-28T12:37:50.572Z,30.56
2019-05-28T12:38:49.469Z,30.58
2019-05-28T12:39:49.465Z,30.53
2019-05-28T12:40:49.450Z,30.55
2019-05-28T12:42:01.425Z,30.60
2019-05-28T12:43:14.290Z,30.58
2019-05-28T12:44:17.249Z,30.52
2019-05-28T12:45:14.275Z,30.49
2019-05-28T12:46:14.261Z,30.46
2019-05-28T12:47:15.017Z,30.45
2019-05-28T12:48:14.391Z,30.45
2019-05-28T12:49:14.229Z,30.49
2019-05-28T12:50:19.876Z,30.45
2019-05-28T12:51:15.307Z,30.44
2019-05-28T12:52:14.202Z,30.49
2019-05-28T12:53:14.187Z,30.53
2019-05-28T12:54:14.229Z,30.46
2019-05-28T12:55:14.177Z,30.53
2019-05-28T12:56:14.159Z,30.48
2019-05-28T12:57:14.145Z,30.51
2019-05-28T12:58:17.274Z,30.46
2019-05-28T12:59:14.138Z,30.37
2019-05-28T13:00:14.399Z,30.36
2019-05-28T13:01:14.105Z,30.42
2019-05-28T13:02:14.110Z,30.31